createdAt,value
2022-11-05T00:01:01.639Z,26.2
2022-11-05T00:02:03.886Z,26.2
2022-11-05T00:03:06.848Z,26
2022-11-05T00:04:10.824Z,26.2
2022-11-05T00:05:13.841Z,25.9
2022-11-05T00:06:16.311Z,26.1
2022-11-05T00:07:18.778Z,26.1
2022-11-05T00:08:20.992Z,26
2022-11-05T00:09:23.464Z,26.2
2022-11-05T00:10:25.366Z,26.2
2022-11-05T00:11:27.547Z,26.3
2022-11-05T00:12:29.751Z,26.2
2022-11-05T00:13:32.220Z,26.3
2022-11-05T00:14:34.139Z,26.2
2022-11-05T00:15:36.628Z,26.2
2022-11-05T00:16:38.824Z,26.2
2022-11-05T00:17:41.289Z,26.2
2022-11-05T00:18:43.512Z,26.2
2022-11-05T00:19:45.401Z,26.4
2022-11-05T00:20:47.945Z,26.3
2022-11-05T00:21:50.141Z,26.4
2022-11-05T00:22:52.044Z,26.4
2022-11-05T00:23:54.245Z,26.3
2022-11-05T00:24:56.442Z,26.3
2022-11-05T00:25:58.912Z,26.5
2022-11-05T00:27:00.841Z,26.3
2022-11-05T00:28:03.053Z,26.4
2022-11-05T00:29:05.262Z,26.3
2022-11-05T00:30:07.464Z,26.2
2022-11-05T00:31:09.947Z,26.4
2022-11-05T00:32:12.135Z,26.3
2022-11-05T00:33:14.611Z,26.3
2022-11-05T00:34:17.103Z,26.3
2022-11-05T00:35:19.282Z,26.5
2022-11-05T00:36:21.922Z,26.3
2022-11-05T00:37:24.147Z,26.4
2022-11-05T00:38:26.618Z,26.4
2022-11-05T00:39:29.089Z,26.4
2022-11-05T00:40:31.553Z,26.5
2022-11-05T00:41:34.048Z,26.5
2022-11-05T00:42:36.226Z,26.5
2022-11-05T00:43:38.419Z,26.5
2022-11-05T00:44:40.594Z,26.5
2022-11-05T00:45:42.793Z,26.5
2022-11-05T00:46:44.966Z,26.5
2022-11-05T00:47:47.437Z,26.5
2022-11-05T00:48:49.936Z,26.5
2022-11-05T00:49:52.436Z,26.5
2022-11-05T00:50:54.899Z,26.5
2022-11-05T00:51:57.890Z,26.5
2022-11-05T00:53:00.087Z,26.7
2022-11-05T00:54:02.637Z,26.7
2022-11-05T00:55:05.108Z,26.7
2022-11-05T00:56:07.310Z,26.5
2022-11-05T00:57:09.515Z,26.6
2022-11-05T00:58:11.985Z,26.8
2022-11-05T00:59:14.449Z,26.7
2022-11-05T01:00:16.932Z,26.7
2022-11-05T01:01:19.506Z,26.7
2022-11-05T01:02:22.443Z,26.7
2022-11-05T01:03:25.805Z,26.7
2022-11-05T01:04:27.733Z,26.9
2022-11-05T01:05:29.961Z,26.6
2022-11-05T01:06:32.171Z,26.7
2022-11-05T01:07:34.503Z,26.7
2022-11-05T01:08:36.970Z,26.7
2022-11-05T01:09:39.170Z,26.6
2022-11-05T01:10:41.369Z,26.6
2022-11-05T01:11:43.288Z,26.8
2022-11-05T01:12:45.498Z,26.8
2022-11-05T01:13:47.432Z,26.8
2022-11-05T01:14:49.350Z,26.7
2022-11-05T01:15:51.553Z,26.8
2022-11-05T01:16:54.020Z,26.7
2022-11-05T01:17:56.247Z,26.9
2022-11-05T01:18:58.704Z,26.7
2022-11-05T01:20:00.909Z,26.7
2022-11-05T01:21:02.850Z,26.8
2022-11-05T01:22:05.033Z,26.8
2022-11-05T01:23:13.134Z,26.8
2022-11-05T01:24:12.689Z,26.8
2022-11-05T01:25:14.606Z,26.8
2022-11-05T01:26:17.075Z,26.9
2022-11-05T01:27:19.264Z,26.7
2022-11-05T01:28:21.503Z,26.8
2022-11-05T01:29:23.988Z,26.9
2022-11-05T01:30:25.921Z,26.9
2022-11-05T01:31:28.390Z,26.8
2022-11-05T01:32:30.867Z,26.9
2022-11-05T01:33:33.080Z,26.8
2022-11-05T01:34:35.558Z,26.8
2022-11-05T01:35:37.752Z,26.9
2022-11-05T01:36:40.245Z,26.9
2022-11-05T01:37:42.746Z,26.9
2022-11-05T01:38:45.306Z,26.9
2022-11-05T01:39:47.508Z,26.8
2022-11-05T01:40:49.980Z,26.9
2022-11-05T01:41:52.454Z,26.8
2022-11-05T01:42:54.656Z,26.9
2022-11-05T01:43:56.856Z,26.8
2022-11-05T01:44:59.329Z,26.9
2022-11-05T01:46:01.245Z,26.7
2022-11-05T01:47:03.448Z,26.8
2022-11-05T01:48:05.642Z,26.9
2022-11-05T01:49:08.572Z,27
2022-11-05T01:50:11.042Z,26.9
2022-11-05T01:51:13.511Z,27
2022-11-05T01:52:16.003Z,26.9
2022-11-05T01:53:18.196Z,26.9
2022-11-05T01:54:20.486Z,27
2022-11-05T01:55:22.444Z,26.8
2022-11-05T01:56:24.930Z,27.1
2022-11-05T01:57:27.111Z,27
2022-11-05T01:58:29.026Z,27
2022-11-05T01:59:31.512Z,27
2022-11-05T02:00:33.998Z,26.9
2022-11-05T02:01:36.376Z,26.8
2022-11-05T02:02:39.439Z,26.9
2022-11-05T02:03:42.528Z,27
2022-11-05T02:04:44.717Z,26.9
2022-11-05T02:05:46.630Z,27
2022-11-05T02:06:49.095Z,26.8
2022-11-05T02:07:51.326Z,26.8
2022-11-05T02:08:53.797Z,27
2022-11-05T02:09:56.340Z,27
2022-11-05T02:10:58.532Z,26.9
2022-11-05T02:12:00.731Z,27.1
2022-11-05T02:13:03.216Z,27
2022-11-05T02:14:05.154Z,27
2022-11-05T02:15:07.642Z,26.9
2022-11-05T02:16:09.540Z,27
2022-11-05T02:17:12.016Z,26.9
2022-11-05T02:18:14.481Z,27
2022-11-05T02:19:16.963Z,27
2022-11-05T02:20:19.432Z,27
2022-11-05T02:21:21.900Z,27.1
2022-11-05T02:22:24.369Z,27.1
2022-11-05T02:23:26.865Z,27.1
2022-11-05T02:24:29.044Z,27.1
2022-11-05T02:25:31.744Z,27.1
2022-11-05T02:26:33.916Z,26.8
2022-11-05T02:27:36.401Z,26.9
2022-11-05T02:28:38.603Z,27
2022-11-05T02:29:40.258Z,26.8
2022-11-05T02:30:42.731Z,27
2022-11-05T02:31:44.672Z,27
2022-11-05T02:32:47.137Z,26.9
2022-11-05T02:33:49.637Z,27.1
2022-11-05T02:34:51.281Z,26.9
2022-11-05T02:35:53.753Z,26.9
2022-11-05T02:36:55.947Z,27.1
2022-11-05T02:37:58.425Z,27.1
2022-11-05T02:39:00.633Z,27.1
2022-11-05T02:40:02.831Z,27.1
2022-11-05T02:41:06.064Z,27.1
2022-11-05T02:42:08.534Z,27.1
2022-11-05T02:43:10.689Z,27
2022-11-05T02:44:14.439Z,27.1
2022-11-05T02:45:16.922Z,27.1
2022-11-05T02:46:18.549Z,27.1
2022-11-05T02:47:21.013Z,27.1
2022-11-05T02:48:23.483Z,27.2
2022-11-05T02:49:25.949Z,27.1
2022-11-05T02:50:28.162Z,27
2022-11-05T02:51:29.784Z,27.1
2022-11-05T02:52:31.995Z,27.1
2022-11-05T02:53:34.457Z,27
2022-11-05T02:54:36.662Z,27
2022-11-05T02:55:38.586Z,27
2022-11-05T02:56:41.131Z,26.9
2022-11-05T02:57:43.329Z,27.3
2022-11-05T02:58:44.965Z,27.1
2022-11-05T02:59:47.157Z,27
2022-11-05T03:00:49.639Z,27.1
2022-11-05T03:01:52.256Z,27.1
2022-11-05T03:02:55.313Z,27
2022-11-05T03:03:57.586Z,26.9
2022-11-05T03:05:00.060Z,26.9
2022-11-05T03:06:02.278Z,27.1
2022-11-05T03:07:04.888Z,27.2
2022-11-05T03:08:06.787Z,27
2022-11-05T03:09:08.994Z,27
2022-11-05T03:10:11.205Z,27.1
2022-11-05T03:11:13.101Z,27.1
2022-11-05T03:12:15.654Z,27.3
2022-11-05T03:13:17.862Z,27.1
2022-11-05T03:14:20.367Z,27
2022-11-05T03:15:22.562Z,27
2022-11-05T03:16:24.736Z,27
2022-11-05T03:17:26.918Z,27.1
2022-11-05T03:18:29.101Z,27
2022-11-05T03:19:31.361Z,27
2022-11-05T03:20:33.831Z,27
2022-11-05T03:21:36.317Z,27
2022-11-05T03:22:38.788Z,27.2
2022-11-05T03:23:41.259Z,27.1
2022-11-05T03:24:43.739Z,27.2
2022-11-05T03:25:46.315Z,27
2022-11-05T03:26:48.508Z,27
2022-11-05T03:27:51.169Z,27.2
2022-11-05T03:28:53.658Z,27.1
2022-11-05T03:29:56.120Z,27
2022-11-05T03:30:58.313Z,27
2022-11-05T03:32:00.514Z,27.1
2022-11-05T03:33:02.498Z,27.1
2022-11-05T03:34:04.694Z,27.1
2022-11-05T03:35:06.889Z,27
2022-11-05T03:36:09.082Z,27
2022-11-05T03:37:10.990Z,27.1
2022-11-05T03:38:13.157Z,27.1
2022-11-05T03:39:15.635Z,27.2
2022-11-05T03:40:18.099Z,27.1
2022-11-05T03:41:20.597Z,27.1
2022-11-05T03:42:22.765Z,27
2022-11-05T03:43:25.411Z,27.1
2022-11-05T03:44:27.603Z,27.2
2022-11-05T03:45:29.532Z,27.1
2022-11-05T03:46:31.731Z,27.3
2022-11-05T03:47:33.930Z,27.2
2022-11-05T03:48:36.163Z,27
2022-11-05T03:49:38.143Z,26.9
2022-11-05T03:50:41.572Z,27
2022-11-05T03:51:44.119Z,27.3
2022-11-05T03:52:46.309Z,27.2
2022-11-05T03:53:48.796Z,27.2
2022-11-05T03:54:50.995Z,27.1
2022-11-05T03:55:53.462Z,27.2
2022-11-05T03:56:55.956Z,27.2
2022-11-05T03:57:58.418Z,27.3
2022-11-05T03:59:00.963Z,27.2
2022-11-05T04:00:02.883Z,27.2
2022-11-05T04:01:05.353Z,27.2
2022-11-05T04:02:07.648Z,27
2022-11-05T04:03:11.323Z,27.2
2022-11-05T04:04:15.212Z,27.2
2022-11-05T04:05:16.878Z,27.2
2022-11-05T04:06:18.816Z,27
2022-11-05T04:07:21.300Z,27.1
2022-11-05T04:08:23.221Z,27.1
2022-11-05T04:09:25.696Z,26.9
2022-11-05T04:10:28.157Z,27
2022-11-05T04:11:30.631Z,27
2022-11-05T04:12:33.123Z,26.9
2022-11-05T04:13:35.598Z,26.9
2022-11-05T04:14:38.148Z,27.1
2022-11-05T04:15:40.075Z,26.8
2022-11-05T04:16:42.269Z,26.9
2022-11-05T04:17:44.472Z,26.7
2022-11-05T04:18:46.932Z,26.9
2022-11-05T04:19:49.146Z,26.8
2022-11-05T04:20:51.627Z,26.7
2022-11-05T04:21:54.099Z,26.7
2022-11-05T04:22:56.300Z,26.9
2022-11-05T04:23:58.492Z,26.7
2022-11-05T04:25:00.707Z,26.7
2022-11-05T04:26:03.195Z,26.8
2022-11-05T04:27:05.409Z,26.6
2022-11-05T04:28:07.668Z,26.6
2022-11-05T04:29:09.573Z,26.6
2022-11-05T04:30:12.139Z,26.8
2022-11-05T04:31:14.033Z,26.7
2022-11-05T04:32:16.505Z,26.7
2022-11-05T04:33:18.978Z,26.6
2022-11-05T04:34:21.181Z,26.7
2022-11-05T04:35:23.420Z,26.7
2022-11-05T04:36:25.631Z,26.5
2022-11-05T04:37:27.559Z,26.6
2022-11-05T04:38:29.467Z,26.7
2022-11-05T04:39:31.653Z,26.7
2022-11-05T04:40:34.135Z,26.6
2022-11-05T04:41:36.600Z,26.6
2022-11-05T04:42:39.084Z,26.6
2022-11-05T04:43:41.305Z,26.5
2022-11-05T04:44:43.769Z,26.5
2022-11-05T04:45:46.325Z,26.6
2022-11-05T04:46:48.538Z,26.6
2022-11-05T04:47:50.729Z,26.5
2022-11-05T04:48:52.919Z,26.6
2022-11-05T04:49:56.117Z,26.5
2022-11-05T04:50:58.581Z,26.5
2022-11-05T04:52:00.781Z,26.5
2022-11-05T04:53:03.264Z,26.5
2022-11-05T04:54:05.483Z,26.5
2022-11-05T04:55:07.974Z,26.4
2022-11-05T04:56:10.171Z,26.6
2022-11-05T04:57:12.696Z,26.5
2022-11-05T04:58:15.187Z,26.4
2022-11-05T04:59:17.208Z,26.5
2022-11-05T05:00:19.670Z,26.5
2022-11-05T05:01:22.516Z,26.6
2022-11-05T05:02:25.919Z,26.4
2022-11-05T05:03:28.125Z,26.4
2022-11-05T05:04:30.594Z,26.6
2022-11-05T05:05:33.092Z,26.5
2022-11-05T05:06:35.290Z,26.4
2022-11-05T05:07:37.774Z,26.5
2022-11-05T05:08:39.709Z,26.4
2022-11-05T05:09:41.882Z,26.5
2022-11-05T05:10:44.351Z,26.5
2022-11-05T05:11:46.531Z,26.5
2022-11-05T05:12:48.719Z,26.4
2022-11-05T05:13:50.626Z,26.4
2022-11-05T05:14:52.575Z,26.2
2022-11-05T05:15:55.040Z,26.4
2022-11-05T05:16:57.592Z,26.4
2022-11-05T05:18:00.053Z,26.4
2022-11-05T05:19:02.920Z,26.4
2022-11-05T05:20:05.182Z,26.3
2022-11-05T05:21:07.662Z,26.3
2022-11-05T05:22:09.862Z,26.3
2022-11-05T05:23:12.772Z,26.4
2022-11-05T05:24:15.865Z,26.4
2022-11-05T05:25:17.760Z,26.3
2022-11-05T05:26:19.684Z,26.2
2022-11-05T05:27:21.862Z,26.3
2022-11-05T05:28:24.065Z,26.3
2022-11-05T05:29:26.532Z,26.4
2022-11-05T05:30:29.025Z,26.4
2022-11-05T05:31:31.195Z,26.5
2022-11-05T05:32:33.500Z,26.4
2022-11-05T05:33:35.970Z,26.4
2022-11-05T05:34:38.440Z,26.3
2022-11-05T05:35:40.625Z,26.3
2022-11-05T05:36:43.093Z,26.3
2022-11-05T05:37:45.575Z,26.4
2022-11-05T05:38:47.749Z,26.3
2022-11-05T05:39:50.226Z,26.3
2022-11-05T05:40:52.723Z,26.2
2022-11-05T05:41:55.223Z,26.2
2022-11-05T05:42:57.173Z,26.2
2022-11-05T05:43:59.647Z,26.3
2022-11-05T05:45:02.174Z,26.4
2022-11-05T05:46:04.124Z,26.2
2022-11-05T05:47:06.319Z,26.3
2022-11-05T05:48:08.874Z,26.4
2022-11-05T05:49:12.566Z,26.2
2022-11-05T05:50:15.212Z,26.4
2022-11-05T05:51:17.690Z,26.5
2022-11-05T05:52:19.628Z,26.4
2022-11-05T05:53:21.818Z,26.2
2022-11-05T05:54:27.663Z,26.3
2022-11-05T05:55:29.278Z,26.2
2022-11-05T05:56:31.466Z,26.3
2022-11-05T05:57:32.843Z,26.4
2022-11-05T05:58:35.033Z,26.4
2022-11-05T05:59:37.513Z,26.1
2022-11-05T06:00:40.012Z,26.3
2022-11-05T06:01:41.743Z,26.2
2022-11-05T06:02:45.005Z,26.3
2022-11-05T06:03:48.662Z,26.3
2022-11-05T06:04:50.593Z,26.1
2022-11-05T06:05:53.065Z,26.4
2022-11-05T06:06:55.543Z,26.4
2022-11-05T06:07:58.010Z,26.2
2022-11-05T06:09:00.486Z,26.2
2022-11-05T06:10:02.967Z,26.2
2022-11-05T06:11:05.191Z,26.4
2022-11-05T06:12:07.820Z,26.3
2022-11-05T06:13:10.321Z,26.3
2022-11-05T06:14:14.488Z,26.3
2022-11-05T06:15:16.977Z,26
2022-11-05T06:16:19.153Z,26
2022-11-05T06:17:21.661Z,26.1
2022-11-05T06:18:23.857Z,26.1
2022-11-05T06:19:26.215Z,26.2
2022-11-05T06:20:28.416Z,26
2022-11-05T06:21:30.887Z,26.2
2022-11-05T06:22:33.064Z,26.1
2022-11-05T06:23:35.269Z,26.3
2022-11-05T06:24:37.193Z,26.3
2022-11-05T06:25:41.307Z,26.1
2022-11-05T06:26:44.107Z,26.1
2022-11-05T06:27:46.378Z,26.3
2022-11-05T06:28:48.869Z,26.1
2022-11-05T06:29:51.338Z,26.1
2022-11-05T06:30:53.819Z,26.3
2022-11-05T06:31:56.006Z,26.1
2022-11-05T06:32:58.520Z,26.2
2022-11-05T06:34:00.712Z,26.2
2022-11-05T06:35:03.358Z,26.3
2022-11-05T06:36:05.529Z,26.2
2022-11-05T06:37:08.195Z,26.2
2022-11-05T06:38:10.133Z,26
2022-11-05T06:39:12.050Z,26.2
2022-11-05T06:40:14.256Z,26.1
2022-11-05T06:41:16.730Z,26.1
2022-11-05T06:42:19.501Z,26.3
2022-11-05T06:43:21.800Z,26.1
2022-11-05T06:44:24.271Z,26.2
2022-11-05T06:45:26.497Z,26.3
2022-11-05T06:46:28.991Z,26.3
2022-11-05T06:47:31.263Z,26.1
2022-11-05T06:48:33.782Z,26.2
2022-11-05T06:49:36.257Z,26.2
2022-11-05T06:50:38.625Z,26.1
2022-11-05T06:51:40.834Z,26.2
2022-11-05T06:52:43.369Z,26.2
2022-11-05T06:53:45.549Z,26.3
2022-11-05T06:54:48.018Z,26.1
2022-11-05T06:55:50.227Z,26.1
2022-11-05T06:56:52.398Z,26.2
2022-11-05T06:57:54.336Z,26.1
2022-11-05T06:58:56.558Z,26.2
2022-11-05T07:00:01.452Z,26.2
2022-11-05T07:01:03.876Z,26.3
2022-11-05T07:02:06.766Z,26.2
2022-11-05T07:03:09.327Z,26.2
2022-11-05T07:04:14.462Z,26.3
2022-11-05T07:05:16.936Z,26.1
2022-11-05T07:06:19.492Z,26.1
2022-11-05T07:07:21.957Z,26.1
2022-11-05T07:08:24.431Z,26.2
2022-11-05T07:09:26.343Z,26.3
2022-11-05T07:10:28.936Z,26.2
2022-11-05T07:11:31.267Z,26.1
2022-11-05T07:12:33.448Z,26.2
2022-11-05T07:13:35.662Z,26.2
2022-11-05T07:14:37.584Z,26.3
2022-11-05T07:15:39.786Z,26.3
2022-11-05T07:16:42.271Z,26.2
2022-11-05T07:17:44.548Z,26.2
2022-11-05T07:18:46.469Z,26.4
2022-11-05T07:19:48.973Z,26.3
2022-11-05T07:20:51.164Z,26.4
2022-11-05T07:21:53.728Z,25.9
2022-11-05T07:22:56.208Z,26.2
2022-11-05T07:23:58.139Z,26.1
2022-11-05T07:25:00.620Z,26
2022-11-05T07:26:03.125Z,26.1
2022-11-05T07:27:05.061Z,26.2
2022-11-05T07:28:07.270Z,26.2
2022-11-05T07:29:09.744Z,26.2
2022-11-05T07:30:12.235Z,26.2
2022-11-05T07:31:14.465Z,26.3
2022-11-05T07:32:16.671Z,26.1
2022-11-05T07:33:18.581Z,26.2
2022-11-05T07:34:21.075Z,26.2
2022-11-05T07:35:23.577Z,26.2
2022-11-05T07:36:25.773Z,26.1
2022-11-05T07:37:28.048Z,26.2
2022-11-05T07:38:29.979Z,26.1
2022-11-05T07:39:32.153Z,26.2
2022-11-05T07:40:34.102Z,26.3
2022-11-05T07:41:36.296Z,26.3
2022-11-05T07:42:38.775Z,26.3
2022-11-05T07:43:40.960Z,26.2
2022-11-05T07:44:43.139Z,26.2
2022-11-05T07:45:45.054Z,26.1
2022-11-05T07:46:46.964Z,26.2
2022-11-05T07:47:49.442Z,26.2
2022-11-05T07:48:51.910Z,26.3
2022-11-05T07:49:54.378Z,26
2022-11-05T07:50:56.870Z,26.2
2022-11-05T07:51:59.332Z,26.1
2022-11-05T07:53:02.181Z,26
2022-11-05T07:54:04.399Z,26.1
2022-11-05T07:55:06.878Z,26
2022-11-05T07:56:08.538Z,26.1
2022-11-05T07:57:11.017Z,26.2
2022-11-05T07:58:13.491Z,26
2022-11-05T07:59:15.967Z,26
2022-11-05T08:00:18.442Z,26.2
2022-11-05T08:01:20.791Z,26.1
2022-11-05T08:02:24.485Z,26.1
2022-11-05T08:03:27.686Z,26.1
2022-11-05T08:04:30.846Z,26
2022-11-05T08:05:33.046Z,26.3
2022-11-05T08:06:34.998Z,26.2
2022-11-05T08:07:37.475Z,26.1
2022-11-05T08:08:40.113Z,26.1
2022-11-05T08:09:42.590Z,26.1
2022-11-05T08:10:45.060Z,26.1
2022-11-05T08:11:47.267Z,26
2022-11-05T08:12:53.239Z,26.1
2022-11-05T08:13:55.437Z,26
2022-11-05T08:14:57.637Z,26
2022-11-05T08:15:59.690Z,26
2022-11-05T08:17:01.594Z,26
2022-11-05T08:18:04.061Z,26.2
2022-11-05T08:19:06.561Z,26.1
2022-11-05T08:20:08.187Z,26.1
2022-11-05T08:21:10.662Z,26
2022-11-05T08:22:13.051Z,26.1
2022-11-05T08:23:15.357Z,26
2022-11-05T08:24:18.372Z,26
2022-11-05T08:25:20.286Z,26.2
2022-11-05T08:26:22.503Z,25.9
2022-11-05T08:27:24.175Z,25.9
2022-11-05T08:28:26.676Z,26.1
2022-11-05T08:29:28.876Z,26
2022-11-05T08:30:31.078Z,26
2022-11-05T08:31:33.283Z,26
2022-11-05T08:32:35.496Z,26.1
2022-11-05T08:33:37.701Z,26
2022-11-05T08:34:40.188Z,26
2022-11-05T08:35:42.404Z,25.9
2022-11-05T08:36:44.867Z,26
2022-11-05T08:37:47.422Z,26
2022-11-05T08:38:49.613Z,26
2022-11-05T08:39:52.276Z,25.8
2022-11-05T08:40:54.760Z,26.1
2022-11-05T08:41:56.966Z,26
2022-11-05T08:42:59.433Z,26.1
2022-11-05T08:44:01.924Z,26.1
2022-11-05T08:45:04.114Z,26
2022-11-05T08:46:06.599Z,26
2022-11-05T08:47:08.520Z,26.1
2022-11-05T08:48:10.153Z,25.9
2022-11-05T08:49:12.623Z,25.8
2022-11-05T08:50:15.111Z,26
2022-11-05T08:51:16.732Z,26
2022-11-05T08:52:18.663Z,26
2022-11-05T08:53:20.896Z,26
2022-11-05T08:54:23.104Z,25.9
2022-11-05T08:55:25.672Z,25.9
2022-11-05T08:56:28.154Z,25.9
2022-11-05T08:57:29.797Z,26.1
2022-11-05T08:58:32.004Z,26
2022-11-05T08:59:34.301Z,26.1
2022-11-05T09:00:36.774Z,25.9
2022-11-05T09:01:38.854Z,25.8
2022-11-05T09:02:42.163Z,26
2022-11-05T09:03:44.887Z,26
2022-11-05T09:04:47.357Z,26.1
2022-11-05T09:05:49.830Z,26
2022-11-05T09:06:51.741Z,26
2022-11-05T09:07:57.961Z,25.9
2022-11-05T09:08:58.944Z,26.1
2022-11-05T09:10:01.136Z,26.1
2022-11-05T09:11:03.827Z,26
2022-11-05T09:12:12.075Z,25.9
2022-11-05T09:13:16.831Z,25.9
2022-11-05T09:14:15.746Z,25.9
2022-11-05T09:15:17.929Z,25.9
2022-11-05T09:16:20.113Z,26
2022-11-05T09:17:22.027Z,25.8
2022-11-05T09:18:24.518Z,25.9
2022-11-05T09:19:26.723Z,25.9
2022-11-05T09:20:29.200Z,25.8
2022-11-05T09:21:31.372Z,25.9
2022-11-05T09:22:33.587Z,26
2022-11-05T09:23:39.065Z,25.9
2022-11-05T09:24:41.298Z,25.9
2022-11-05T09:25:42.928Z,25.9
2022-11-05T09:26:45.365Z,25.8
2022-11-05T09:27:47.559Z,25.9
2022-11-05T09:28:50.043Z,25.9
2022-11-05T09:29:52.222Z,25.9
2022-11-05T09:30:54.416Z,26.1
2022-11-05T09:31:56.376Z,25.9
2022-11-05T09:32:58.588Z,26.1
2022-11-05T09:34:00.791Z,25.8
2022-11-05T09:35:03.285Z,25.8
2022-11-05T09:36:05.184Z,25.9
2022-11-05T09:37:07.661Z,25.8
2022-11-05T09:38:09.307Z,25.9
2022-11-05T09:39:11.504Z,25.9
2022-11-05T09:40:13.466Z,26
2022-11-05T09:41:15.970Z,25.8
2022-11-05T09:42:18.550Z,25.9
2022-11-05T09:43:20.750Z,25.9
2022-11-05T09:44:26.933Z,25.8
2022-11-05T09:45:29.401Z,26
2022-11-05T09:46:31.604Z,26.1
2022-11-05T09:47:34.094Z,25.7
2022-11-05T09:48:36.562Z,25.9
2022-11-05T09:49:38.778Z,25.9
2022-11-05T09:50:41.257Z,25.8
2022-11-05T09:51:43.734Z,25.8
2022-11-05T09:52:46.207Z,25.9
2022-11-05T09:53:48.121Z,26.1
2022-11-05T09:54:50.336Z,26
2022-11-05T09:55:52.605Z,25.9
2022-11-05T09:56:54.533Z,26
2022-11-05T09:57:57.122Z,25.9
2022-11-05T09:58:59.046Z,25.9
2022-11-05T10:00:01.258Z,25.9
2022-11-05T10:01:03.260Z,25.8
2022-11-05T10:02:05.932Z,25.8
2022-11-05T10:03:09.306Z,25.8
2022-11-05T10:04:14.044Z,25.8
2022-11-05T10:05:16.086Z,25.9
2022-11-05T10:06:18.636Z,25.9
2022-11-05T10:07:21.131Z,25.9
2022-11-05T10:08:23.034Z,25.8
2022-11-05T10:09:24.992Z,26
2022-11-05T10:10:27.227Z,25.9
2022-11-05T10:11:29.459Z,25.8
2022-11-05T10:12:31.939Z,25.8
2022-11-05T10:13:34.358Z,25.9
2022-11-05T10:14:36.833Z,25.9
2022-11-05T10:15:38.788Z,25.7
2022-11-05T10:16:40.731Z,26
2022-11-05T10:17:42.946Z,25.8
2022-11-05T10:18:45.428Z,25.9
2022-11-05T10:19:47.914Z,25.7
2022-11-05T10:20:50.114Z,25.9
2022-11-05T10:22:05.920Z,25.9
2022-11-05T10:22:57.606Z,25.7
2022-11-05T10:23:59.524Z,26
2022-11-05T10:25:02.003Z,25.8
2022-11-05T10:26:03.952Z,25.8
2022-11-05T10:27:05.913Z,25.8
2022-11-05T10:28:08.135Z,25.8
2022-11-05T10:29:10.878Z,25.8
2022-11-05T10:30:12.783Z,25.7
2022-11-05T10:31:14.430Z,25.8
2022-11-05T10:32:16.638Z,25.9
2022-11-05T10:33:18.553Z,25.8
2022-11-05T10:34:20.469Z,25.8
2022-11-05T10:35:22.706Z,25.9
2022-11-05T10:36:24.920Z,25.7
2022-11-05T10:37:26.837Z,25.8
2022-11-05T10:38:28.772Z,25.9
2022-11-05T10:39:31.002Z,25.9
2022-11-05T10:40:32.916Z,25.9
2022-11-05T10:41:35.155Z,25.8
2022-11-05T10:42:37.122Z,25.9
2022-11-05T10:43:39.607Z,25.7
2022-11-05T10:44:42.347Z,25.8
2022-11-05T10:45:44.555Z,25.8
2022-11-05T10:46:46.468Z,25.7
2022-11-05T10:47:48.947Z,25.7
2022-11-05T10:48:51.422Z,25.7
2022-11-05T10:49:53.903Z,25.8
2022-11-05T10:50:56.110Z,26
2022-11-05T10:51:58.048Z,25.7
2022-11-05T10:53:00.528Z,25.7
2022-11-05T10:54:03.016Z,25.6
2022-11-05T10:55:05.487Z,25.7
2022-11-05T10:56:07.985Z,25.8
2022-11-05T10:57:10.456Z,25.9
2022-11-05T10:58:12.684Z,25.7
2022-11-05T10:59:15.201Z,25.8
2022-11-05T11:00:17.582Z,25.8
2022-11-05T11:01:20.638Z,25.7
2022-11-05T11:02:23.549Z,25.8
2022-11-05T11:03:26.438Z,25.8
2022-11-05T11:04:29.580Z,25.8
2022-11-05T11:05:33.093Z,25.7
2022-11-05T11:06:35.021Z,25.9
2022-11-05T11:07:37.508Z,26
2022-11-05T11:08:39.711Z,25.7
2022-11-05T11:09:41.357Z,25.7
2022-11-05T11:10:43.269Z,25.7
2022-11-05T11:11:45.748Z,25.7
2022-11-05T11:12:47.959Z,25.8
2022-11-05T11:13:50.480Z,25.9
2022-11-05T11:14:52.965Z,25.9
2022-11-05T11:15:55.724Z,25.9
2022-11-05T11:16:58.212Z,26
2022-11-05T11:18:00.149Z,25.8
2022-11-05T11:19:02.060Z,25.7
2022-11-05T11:20:04.275Z,25.7
2022-11-05T11:21:06.216Z,25.7
2022-11-05T11:22:08.126Z,25.7
2022-11-05T11:23:10.906Z,25.9
2022-11-05T11:24:15.350Z,25.8
2022-11-05T11:25:17.837Z,26
2022-11-05T11:26:20.336Z,25.6
2022-11-05T11:27:22.815Z,25.7
2022-11-05T11:28:25.035Z,25.7
2022-11-05T11:29:27.617Z,25.7
2022-11-05T11:30:29.520Z,25.8
2022-11-05T11:31:32.178Z,25.8
2022-11-05T11:32:34.763Z,25.8
2022-11-05T11:33:37.003Z,25.7
2022-11-05T11:34:38.660Z,25.9
2022-11-05T11:35:40.347Z,25.7
2022-11-05T11:36:42.552Z,25.8
2022-11-05T11:37:44.748Z,25.7
2022-11-05T11:38:46.399Z,25.7
2022-11-05T11:39:48.607Z,25.7
2022-11-05T11:40:51.080Z,25.8
2022-11-05T11:41:53.027Z,25.8
2022-11-05T11:42:55.240Z,25.8
2022-11-05T11:43:57.715Z,25.8
2022-11-05T11:45:00.127Z,25.8
2022-11-05T11:46:06.224Z,25.6
2022-11-05T11:47:07.326Z,25.9
2022-11-05T11:48:10.168Z,25.7
2022-11-05T11:49:12.110Z,25.7
2022-11-05T11:50:14.320Z,25.9
2022-11-05T11:51:16.857Z,25.8
2022-11-05T11:52:19.328Z,25.8
2022-11-05T11:53:21.261Z,25.8
2022-11-05T11:54:27.222Z,26
2022-11-05T11:55:28.754Z,25.8
2022-11-05T11:56:30.682Z,25.9
2022-11-05T11:57:32.893Z,25.7
2022-11-05T11:58:34.529Z,25.7
2022-11-05T12:00:02.344Z,25.8
2022-11-05T12:00:41.815Z,25.9
2022-11-05T12:01:43.816Z,25.7
2022-11-05T12:02:46.424Z,25.9
2022-11-05T12:03:49.276Z,25.9
2022-11-05T12:04:51.186Z,25.8
2022-11-05T12:05:53.676Z,25.8
2022-11-05T12:06:56.156Z,25.7
2022-11-05T12:07:58.639Z,25.7
2022-11-05T12:09:06.338Z,25.7
2022-11-05T12:10:05.276Z,25.7
2022-11-05T12:11:06.942Z,25.7
2022-11-05T12:12:09.148Z,25.8
2022-11-05T12:13:11.313Z,25.7
2022-11-05T12:14:15.279Z,25.8
2022-11-05T12:15:17.475Z,25.6
2022-11-05T12:16:20.008Z,25.7
2022-11-05T12:17:22.491Z,25.9
2022-11-05T12:18:24.690Z,25.8
2022-11-05T12:19:27.387Z,25.8
2022-11-05T12:20:29.591Z,25.8
2022-11-05T12:21:51.240Z,25.7
2022-11-05T12:22:37.063Z,25.7
2022-11-05T12:23:39.537Z,25.7
2022-11-05T12:24:41.771Z,25.6
2022-11-05T12:25:43.986Z,25.7
2022-11-05T12:26:46.188Z,25.7
2022-11-05T12:27:48.380Z,25.8
2022-11-05T12:29:12.582Z,25.9
2022-11-05T12:29:55.022Z,25.7
2022-11-05T12:30:57.234Z,25.8
2022-11-05T12:31:59.457Z,25.8
2022-11-05T12:33:01.986Z,25.8
2022-11-05T12:34:05.055Z,25.7
2022-11-05T12:35:07.902Z,25.6
2022-11-05T12:36:10.386Z,25.8
2022-11-05T12:37:12.041Z,25.9
2022-11-05T12:38:14.529Z,25.8
2022-11-05T12:39:16.502Z,25.7
2022-11-05T12:40:18.712Z,25.7
2022-11-05T12:41:20.924Z,25.8
2022-11-05T12:42:22.850Z,25.9
2022-11-05T12:43:24.782Z,25.7
2022-11-05T12:44:26.688Z,25.7
2022-11-05T12:45:29.174Z,25.7
2022-11-05T12:46:31.098Z,25.8
2022-11-05T12:47:33.339Z,25.8
2022-11-05T12:48:37.178Z,25.7
2022-11-05T12:49:39.361Z,25.9
2022-11-05T12:50:41.923Z,25.7
2022-11-05T12:51:44.125Z,25.7
2022-11-05T12:52:46.058Z,25.7
2022-11-05T12:53:48.265Z,25.7
2022-11-05T12:54:50.483Z,25.6
2022-11-05T12:55:52.384Z,25.7
2022-11-05T12:56:54.571Z,25.6
2022-11-05T12:57:56.792Z,25.6
2022-11-05T12:58:58.995Z,25.9
2022-11-05T13:00:01.194Z,25.8
2022-11-05T13:01:03.292Z,25.7
2022-11-05T13:02:05.923Z,25.7
2022-11-05T13:03:08.829Z,25.9
2022-11-05T13:04:12.584Z,25.7
2022-11-05T13:05:15.106Z,25.6
2022-11-05T13:06:18.014Z,25.7
2022-11-05T13:07:19.947Z,25.8
2022-11-05T13:08:21.885Z,25.7
2022-11-05T13:09:24.387Z,25.8
2022-11-05T13:10:26.309Z,25.8
2022-11-05T13:11:28.492Z,25.7
2022-11-05T13:12:30.958Z,25.9
2022-11-05T13:13:32.891Z,25.7
2022-11-05T13:14:35.363Z,25.8
2022-11-05T13:15:37.854Z,25.7
2022-11-05T13:16:40.360Z,25.8
2022-11-05T13:17:43.170Z,26
2022-11-05T13:18:45.718Z,25.8
2022-11-05T13:19:48.206Z,25.8
2022-11-05T13:20:50.134Z,25.9
2022-11-05T13:21:52.896Z,25.7
2022-11-05T13:22:55.100Z,25.9
2022-11-05T13:23:57.305Z,25.7
2022-11-05T13:24:59.776Z,25.8
2022-11-05T13:26:01.712Z,25.8
2022-11-05T13:27:03.650Z,25.7
2022-11-05T13:28:05.859Z,25.7
2022-11-05T13:29:08.049Z,25.6
2022-11-05T13:30:10.260Z,25.7
2022-11-05T13:31:12.742Z,25.8
2022-11-05T13:32:15.238Z,25.6
2022-11-05T13:33:17.721Z,25.7
2022-11-05T13:34:20.224Z,25.9
2022-11-05T13:35:22.464Z,25.7
2022-11-05T13:36:24.657Z,25.6
2022-11-05T13:37:27.205Z,25.7
2022-11-05T13:38:29.415Z,25.7
2022-11-05T13:39:31.614Z,25.9
2022-11-05T13:40:33.820Z,25.9
2022-11-05T13:41:36.298Z,25.9
2022-11-05T13:42:38.486Z,25.8
2022-11-05T13:43:40.692Z,25.9
2022-11-05T13:44:42.901Z,25.8
2022-11-05T13:45:45.101Z,25.8
2022-11-05T13:46:47.577Z,25.9
2022-11-05T13:47:50.058Z,25.6
2022-11-05T13:48:52.259Z,25.7
2022-11-05T13:49:54.500Z,25.9
2022-11-05T13:50:56.703Z,25.7
2022-11-05T13:51:58.917Z,25.9
2022-11-05T13:53:01.569Z,25.7
2022-11-05T13:54:03.778Z,25.9
2022-11-05T13:55:06.794Z,25.9
2022-11-05T13:56:08.155Z,25.7
2022-11-05T13:57:10.358Z,25.8
2022-11-05T13:58:11.993Z,25.8